createdAt,value
2022-10-11T00:01:41.316Z,7.90
2022-10-11T00:04:29.471Z,6.88
2022-10-11T00:07:17.794Z,8.55
2022-10-11T00:10:07.151Z,8.27
2022-10-11T00:12:55.408Z,7.53
2022-10-11T00:15:43.246Z,8.75
2022-10-11T00:18:32.663Z,6.60
2022-10-11T00:21:21.582Z,7.22
2022-10-11T00:24:16.008Z,7.43
2022-10-11T00:27:03.951Z,7.38
2022-10-11T00:29:51.961Z,7.57
2022-10-11T00:32:40.808Z,7.72
2022-10-11T00:35:29.939Z,8.38
2022-10-11T00:38:18.517Z,8.15
2022-10-11T00:41:06.945Z,8.38
2022-10-11T00:44:13.902Z,7.03
2022-10-11T00:47:04.106Z,7.30
2022-10-11T00:49:57.584Z,7.13
2022-10-11T00:52:51.239Z,7.53
2022-10-11T00:55:44.551Z,6.65
2022-10-11T00:58:34.999Z,6.75
2022-10-11T01:01:23.246Z,7.38
2022-10-11T01:04:11.067Z,6.53
2022-10-11T01:07:00.068Z,6.38
2022-10-11T01:09:50.107Z,6.68
2022-10-11T01:12:41.324Z,6.13
2022-10-11T01:15:36.039Z,6.63
2022-10-11T01:18:31.730Z,5.63
2022-10-11T01:21:32.308Z,6.05
2022-10-11T01:24:49.369Z,5.75
2022-10-11T01:27:56.590Z,6.18
2022-10-11T01:30:46.835Z,6.85
2022-10-11T01:33:41.671Z,6.25
2022-10-11T01:36:34.119Z,5.47
2022-10-11T01:39:26.861Z,6.35
2022-10-11T01:45:04.018Z,5.45
2022-10-11T01:48:05.805Z,5.75
2022-10-11T01:50:56.905Z,6.03
2022-10-11T01:54:00.802Z,6.05
2022-10-11T01:57:05.268Z,6.38
2022-10-11T02:00:03.726Z,6.03
2022-10-11T02:03:06.115Z,6.72
2022-10-11T02:06:02.613Z,5.50
2022-10-11T02:08:57.133Z,6.35
2022-10-11T02:11:45.014Z,5.80
2022-10-11T02:14:36.652Z,6.38
2022-10-11T02:17:31.856Z,6.20
2022-10-11T02:20:24.254Z,7.20
2022-10-11T02:23:16.215Z,6.07
2022-10-11T02:26:07.968Z,7.43
2022-10-11T02:29:01.336Z,7.72
2022-10-11T02:31:51.424Z,6.93
2022-10-11T02:34:44.611Z,7.30
2022-10-11T02:37:41.141Z,6.75
2022-10-11T02:40:33.457Z,7.70
2022-10-11T02:43:29.403Z,6.50
2022-10-11T02:46:18.750Z,6.05
2022-10-11T02:49:11.296Z,6.40
2022-10-11T02:51:59.901Z,6.55
2022-10-11T02:54:48.929Z,5.88
2022-10-11T02:57:36.878Z,7.43
2022-10-11T03:00:24.823Z,6.60
2022-10-11T03:03:13.000Z,7.55
2022-10-11T03:06:01.648Z,8.00
2022-10-11T03:08:49.824Z,7.03
2022-10-11T03:11:39.203Z,7.28
2022-10-11T03:14:27.364Z,6.10
2022-10-11T03:17:35.154Z,6.10
2022-10-11T03:20:23.316Z,6.50
2022-10-11T03:23:11.002Z,7.10
2022-10-11T03:25:58.987Z,6.47
2022-10-11T03:28:48.578Z,6.22
2022-10-11T03:31:36.396Z,6.80
2022-10-11T03:34:24.388Z,6.72
2022-10-11T03:37:12.276Z,6.18
2022-10-11T03:40:00.468Z,6.75
2022-10-11T03:42:48.787Z,7.00
2022-10-11T03:45:38.153Z,6.70
2022-10-11T03:48:26.614Z,6.53
2022-10-11T03:51:15.086Z,6.38
2022-10-11T03:54:03.414Z,6.07
2022-10-11T03:56:51.392Z,6.90
2022-10-11T03:59:39.116Z,5.93
2022-10-11T04:02:28.358Z,5.97
2022-10-11T04:05:16.301Z,6.15
2022-10-11T04:08:07.379Z,6.20
2022-10-11T04:10:59.315Z,6.03
2022-10-11T04:13:47.383Z,6.85
2022-10-11T04:16:38.614Z,7.00
2022-10-11T04:19:27.900Z,7.10
2022-10-11T04:22:15.931Z,5.90
2022-10-11T04:25:04.137Z,6.53
2022-10-11T04:27:52.167Z,6.60
2022-10-11T04:30:40.312Z,6.47
2022-10-11T04:33:28.664Z,7.28
2022-10-11T04:36:17.867Z,7.82
2022-10-11T04:39:06.168Z,7.63
2022-10-11T04:41:54.175Z,7.50
2022-10-11T04:44:42.245Z,7.15
2022-10-11T04:47:30.255Z,7.25
2022-10-11T04:50:18.994Z,6.95
2022-10-11T04:53:08.123Z,7.10
2022-10-11T04:56:01.825Z,7.82
2022-10-11T04:58:54.020Z,7.22
2022-10-11T05:01:43.405Z,7.82
2022-10-11T05:04:31.656Z,8.63
2022-10-11T05:07:19.365Z,7.13
2022-10-11T05:10:10.356Z,7.45
2022-10-11T05:12:58.488Z,7.05
2022-10-11T05:15:46.512Z,7.20
2022-10-11T05:18:34.799Z,8.77
2022-10-11T05:21:24.498Z,7.65
2022-10-11T05:24:12.325Z,7.32
2022-10-11T05:27:03.489Z,7.18
2022-10-11T05:29:51.729Z,7.88
2022-10-11T05:32:39.728Z,7.78
2022-10-11T05:35:27.576Z,7.82
2022-10-11T05:38:15.541Z,8.63
2022-10-11T05:41:04.952Z,8.85
2022-10-11T05:43:54.116Z,7.35
2022-10-11T05:46:42.057Z,9.35
2022-10-11T05:49:30.044Z,8.38
2022-10-11T05:52:20.418Z,8.02
2022-10-11T05:55:09.464Z,8.02
2022-10-11T05:57:58.319Z,8.23
2022-10-11T06:00:47.624Z,7.47
2022-10-11T06:03:35.567Z,8.10
2022-10-11T06:06:23.860Z,7.22
2022-10-11T06:09:12.653Z,7.93
2022-10-11T06:12:00.850Z,8.27
2022-10-11T06:14:48.606Z,8.93
2022-10-11T06:17:38.428Z,7.60
2022-10-11T06:20:26.658Z,8.18
2022-10-11T06:23:14.705Z,9.82
2022-10-11T06:26:07.319Z,9.02
2022-10-11T06:29:20.985Z,8.70
2022-10-11T06:32:09.145Z,8.40
2022-10-11T06:34:58.629Z,8.60
2022-10-11T06:37:46.444Z,8.93
2022-10-11T06:40:34.446Z,7.97
2022-10-11T06:43:22.947Z,8.48
2022-10-11T06:46:11.381Z,8.88
2022-10-11T06:48:59.734Z,7.35
2022-10-11T06:51:48.794Z,7.90
2022-10-11T06:54:39.163Z,8.30
2022-10-11T06:57:30.973Z,7.28
2022-10-11T07:00:19.360Z,9.25
2022-10-11T07:03:08.393Z,8.48
2022-10-11T07:06:02.597Z,8.00
2022-10-11T07:08:52.991Z,7.28
2022-10-11T07:11:40.812Z,8.10
2022-10-11T07:14:29.068Z,8.95
2022-10-11T07:17:17.204Z,8.00
2022-10-11T07:20:06.039Z,8.95
2022-10-11T07:22:54.220Z,7.85
2022-10-11T07:25:43.818Z,8.07
2022-10-11T07:28:32.004Z,8.23
2022-10-11T07:31:22.414Z,8.25
2022-10-11T07:34:11.203Z,8.98
2022-10-11T07:36:59.999Z,8.70
2022-10-11T07:39:51.849Z,8.05
2022-10-11T07:42:41.427Z,7.38
2022-10-11T07:45:29.859Z,9.40
2022-10-11T07:48:18.147Z,7.05
2022-10-11T07:51:08.117Z,7.00
2022-10-11T07:53:57.376Z,7.53
2022-10-11T07:56:45.271Z,7.57
2022-10-11T07:59:34.733Z,6.78
2022-10-11T08:02:22.987Z,8.30
2022-10-11T08:05:10.817Z,7.25
2022-10-11T08:07:59.266Z,8.00
2022-10-11T08:10:47.537Z,9.20
2022-10-11T08:13:36.222Z,8.35
2022-10-11T08:16:26.003Z,7.13
2022-10-11T08:19:13.861Z,7.07
2022-10-11T08:22:02.228Z,7.57
2022-10-11T08:24:51.790Z,7.18
2022-10-11T08:27:40.004Z,7.75
2022-10-11T08:30:30.134Z,7.93
2022-10-11T08:33:20.959Z,7.53
2022-10-11T08:36:11.046Z,8.55
2022-10-11T08:38:59.553Z,7.43
2022-10-11T08:41:54.411Z,7.57
2022-10-11T08:45:10.199Z,7.13
2022-10-11T08:48:03.591Z,8.05
2022-10-11T08:50:55.691Z,7.80
2022-10-11T08:53:50.187Z,7.25
2022-10-11T08:56:40.324Z,6.80
2022-10-11T08:59:34.615Z,7.20
2022-10-11T09:02:55.473Z,7.10
2022-10-11T09:05:53.066Z,6.65
2022-10-11T09:08:58.743Z,6.82
2022-10-11T09:11:59.981Z,8.65
2022-10-11T09:15:03.768Z,8.13
2022-10-11T09:18:06.754Z,8.15
2022-10-11T09:21:08.731Z,5.70
2022-10-11T09:24:25.102Z,6.40
2022-10-11T09:27:33.244Z,6.38
2022-10-11T09:30:30.212Z,6.20
2022-10-11T09:33:22.403Z,6.75
2022-10-11T09:36:19.648Z,5.85
2022-10-11T09:39:14.770Z,6.28
2022-10-11T09:42:07.769Z,8.38
2022-10-11T09:44:57.405Z,6.90
2022-10-11T09:47:45.481Z,8.25
2022-10-11T09:50:33.995Z,7.32
2022-10-11T09:53:42.302Z,7.30
2022-10-11T09:56:52.330Z,6.25
2022-10-11T09:59:43.596Z,6.85
2022-10-11T10:02:40.416Z,6.40
2022-10-11T10:05:29.684Z,5.68
2022-10-11T10:08:25.739Z,7.70
2022-10-11T10:11:16.391Z,7.85
2022-10-11T10:14:04.732Z,7.35
2022-10-11T10:17:10.176Z,6.60
2022-10-11T10:20:34.869Z,6.90
2022-10-11T10:23:54.793Z,6.10
2022-10-11T10:26:42.638Z,6.82
2022-10-11T10:29:30.777Z,5.75
2022-10-11T10:32:28.107Z,6.60
2022-10-11T10:35:38.446Z,6.28
2022-10-11T10:38:33.918Z,4.97
2022-10-11T10:41:21.665Z,5.72
2022-10-11T10:44:11.840Z,5.25
2022-10-11T10:47:10.783Z,5.32
2022-10-11T10:50:08.674Z,5.68
2022-10-11T10:53:14.024Z,5.95
2022-10-11T10:56:09.948Z,6.13
2022-10-11T10:59:12.006Z,6.40
2022-10-11T11:02:16.018Z,6.25
2022-10-11T11:05:24.459Z,7.97
2022-10-11T11:08:17.196Z,9.43
2022-10-11T11:11:15.060Z,9.25
2022-10-11T11:14:12.097Z,9.40
2022-10-11T11:17:08.972Z,7.47
2022-10-11T11:20:10.135Z,7.75
2022-10-11T11:23:11.575Z,8.80
2022-10-11T11:26:09.031Z,6.90
2022-10-11T11:29:14.444Z,6.35
2022-10-11T11:32:17.579Z,6.38
2022-10-11T11:38:06.559Z,5.28
2022-10-11T11:40:58.613Z,4.80
2022-10-11T11:44:04.191Z,4.30
2022-10-11T11:47:02.808Z,4.80
2022-10-11T11:49:56.861Z,4.97
2022-10-11T11:52:48.326Z,4.85
2022-10-11T11:55:48.252Z,5.28
2022-10-11T11:58:43.876Z,4.63
2022-10-11T12:01:39.614Z,5.40
2022-10-11T12:04:35.542Z,5.43
2022-10-11T12:07:26.290Z,5.30
2022-10-11T12:10:25.084Z,4.80
2022-10-11T12:13:34.789Z,5.47
2022-10-11T12:16:23.391Z,5.40
2022-10-11T12:19:15.310Z,5.15
2022-10-11T12:22:36.490Z,5.03
2022-10-11T12:26:09.251Z,4.68
2022-10-11T12:29:29.138Z,5.70
2022-10-11T12:32:51.297Z,5.07
2022-10-11T12:35:50.630Z,4.63
2022-10-11T12:38:40.174Z,5.30
2022-10-11T12:41:53.644Z,5.10
2022-10-11T12:44:47.147Z,4.63
2022-10-11T12:47:42.966Z,5.15
2022-10-11T12:50:40.734Z,4.78
2022-10-11T12:53:57.681Z,4.70
2022-10-11T12:57:22.781Z,5.80
2022-10-11T13:00:23.783Z,5.15
2022-10-11T13:03:32.513Z,5.00
2022-10-11T13:06:25.193Z,5.68
2022-10-11T13:09:19.675Z,5.00
2022-10-11T13:12:13.176Z,5.40
2022-10-11T13:15:06.953Z,4.80
2022-10-11T13:18:01.954Z,4.88
2022-10-11T13:20:49.961Z,5.25
2022-10-11T13:23:40.121Z,4.65
2022-10-11T13:26:30.698Z,5.50
2022-10-11T13:29:20.854Z,4.72
2022-10-11T13:32:14.618Z,5.95
2022-10-11T13:35:05.606Z,4.75
2022-10-11T13:37:53.810Z,4.70
2022-10-11T13:40:41.664Z,5.10
2022-10-11T13:43:32.044Z,4.60
2022-10-11T13:46:23.465Z,5.15
2022-10-11T13:49:37.507Z,5.72
2022-10-11T13:52:27.644Z,5.32
2022-10-11T13:55:26.080Z,5.30
2022-10-11T13:58:21.441Z,5.35
2022-10-11T14:01:20.845Z,4.95
2022-10-11T14:04:10.810Z,4.88
2022-10-11T14:07:02.346Z,4.57
2022-10-11T14:09:52.022Z,4.82
2022-10-11T14:12:44.430Z,4.80
2022-10-11T14:19:39.490Z,4.53
2022-10-11T14:22:27.470Z,5.13
2022-10-11T14:25:17.066Z,4.50
2022-10-11T14:28:05.720Z,5.18
2022-10-11T14:30:53.412Z,4.57
2022-10-11T14:33:41.357Z,5.20
2022-10-11T14:36:29.465Z,5.20
2022-10-11T14:39:19.915Z,4.70
2022-10-11T14:42:09.931Z,4.90
2022-10-11T14:44:57.886Z,5.85
2022-10-11T14:47:46.343Z,4.72
2022-10-11T14:50:40.496Z,4.82
2022-10-11T14:53:28.400Z,5.40
2022-10-11T14:56:21.121Z,5.15
2022-10-11T14:59:13.762Z,5.28
2022-10-11T15:02:01.880Z,4.43
2022-10-11T15:04:50.016Z,4.50
2022-10-11T15:07:37.887Z,4.90
2022-10-11T15:10:28.121Z,5.00
2022-10-11T15:13:16.110Z,4.93
2022-10-11T15:16:05.805Z,4.75
2022-10-11T15:18:54.015Z,5.25
2022-10-11T15:21:41.852Z,4.43
2022-10-11T15:24:29.410Z,4.65
2022-10-11T15:27:17.647Z,4.50
2022-10-11T15:30:14.972Z,4.30
2022-10-11T15:33:06.871Z,4.70
2022-10-11T15:35:55.069Z,4.18
2022-10-11T15:38:43.688Z,3.97
2022-10-11T15:41:31.901Z,4.82
2022-10-11T15:44:19.945Z,4.65
2022-10-11T15:47:08.040Z,4.60
2022-10-11T15:49:56.958Z,4.35
2022-10-11T15:52:48.724Z,4.63
2022-10-11T15:55:39.648Z,5.10
2022-10-11T15:58:38.104Z,4.95
2022-10-11T16:01:26.204Z,5.38
2022-10-11T16:04:14.202Z,5.65
2022-10-11T16:07:03.847Z,5.78
2022-10-11T16:09:51.660Z,6.07
2022-10-11T16:12:39.502Z,6.10
2022-10-11T16:15:35.919Z,6.55
2022-10-11T16:18:23.784Z,6.40
2022-10-11T16:21:15.690Z,5.90
2022-10-11T16:24:05.256Z,5.60
2022-10-11T16:26:53.292Z,5.50
2022-10-11T16:29:41.780Z,5.60
2022-10-11T16:32:30.494Z,6.25
2022-10-11T16:35:19.293Z,4.88
2022-10-11T16:38:07.262Z,6.07
2022-10-11T16:40:56.616Z,5.88
2022-10-11T16:43:44.546Z,6.50
2022-10-11T16:46:34.057Z,5.13
2022-10-11T16:49:26.117Z,6.10
2022-10-11T16:52:14.961Z,5.50
2022-10-11T16:55:02.793Z,5.05
2022-10-11T16:57:52.508Z,4.55
2022-10-11T17:00:44.380Z,4.45
2022-10-11T17:03:32.552Z,3.35
2022-10-11T17:06:20.873Z,4.85
2022-10-11T17:09:09.311Z,5.70
2022-10-11T17:11:57.332Z,6.53
2022-10-11T17:14:47.254Z,7.20
2022-10-11T17:17:35.139Z,6.65
2022-10-11T17:20:22.936Z,6.05
2022-10-11T17:23:10.904Z,5.55
2022-10-11T17:25:59.006Z,5.55
2022-10-11T17:28:47.473Z,5.97
2022-10-11T17:31:38.429Z,5.60
2022-10-11T17:34:28.283Z,7.80
2022-10-11T17:37:16.533Z,7.20
2022-10-11T17:40:04.642Z,8.18
2022-10-11T17:42:52.844Z,7.55
2022-10-11T17:45:44.000Z,9.63
2022-10-11T17:48:34.613Z,7.78
2022-10-11T17:51:22.565Z,7.72
2022-10-11T17:54:14.464Z,7.70
2022-10-11T17:57:02.209Z,9.05
2022-10-11T17:59:50.263Z,10.27
2022-10-11T18:02:40.143Z,7.65
2022-10-11T18:05:29.273Z,7.43
2022-10-11T18:08:17.272Z,6.65
2022-10-11T18:11:05.660Z,7.22
2022-10-11T18:13:54.671Z,7.47
2022-10-11T18:16:42.751Z,8.23
2022-10-11T18:19:30.404Z,9.07
2022-10-11T18:22:19.672Z,8.45
2022-10-11T18:25:08.016Z,8.93
2022-10-11T18:27:55.949Z,7.05
2022-10-11T18:30:45.306Z,7.40
2022-10-11T18:33:46.003Z,6.82
2022-10-11T18:36:34.508Z,6.72
2022-10-11T18:39:23.840Z,7.10
2022-10-11T18:42:11.603Z,6.63
2022-10-11T18:45:00.148Z,7.22
2022-10-11T18:47:50.715Z,6.78
2022-10-11T18:50:38.332Z,6.43
2022-10-11T18:53:26.465Z,6.30
2022-10-11T18:56:17.337Z,7.07
2022-10-11T18:59:06.337Z,6.97
2022-10-11T19:01:54.342Z,6.53
2022-10-11T19:04:42.475Z,7.35
2022-10-11T19:07:30.696Z,6.60
2022-10-11T19:10:18.853Z,7.13
2022-10-11T19:13:07.924Z,6.25
2022-10-11T19:15:55.832Z,6.40
2022-10-11T19:18:44.626Z,6.70
2022-10-11T19:21:32.950Z,6.25
2022-10-11T19:24:23.577Z,6.72
2022-10-11T19:27:11.530Z,7.45
2022-10-11T19:30:00.854Z,7.00
2022-10-11T19:32:48.570Z,7.65
2022-10-11T19:35:36.559Z,7.65
2022-10-11T19:38:24.512Z,7.35
2022-10-11T19:41:12.663Z,7.10
2022-10-11T19:44:00.780Z,6.80
2022-10-11T19:46:53.026Z,6.72
2022-10-11T19:49:41.191Z,6.45
2022-10-11T19:52:29.294Z,5.97
2022-10-11T19:55:17.520Z,5.78
2022-10-11T19:58:08.254Z,6.68
2022-10-11T20:01:03.167Z,6.03
2022-10-11T20:03:53.954Z,6.88
2022-10-11T20:06:45.728Z,6.88
2022-10-11T20:09:36.550Z,6.55
2022-10-11T20:12:24.263Z,7.10
2022-10-11T20:15:12.869Z,6.40
2022-10-11T20:18:02.773Z,6.22
2022-10-11T20:21:05.840Z,7.00
2022-10-11T20:23:57.358Z,7.00
2022-10-11T20:26:45.326Z,6.68
2022-10-11T20:29:35.290Z,6.53
2022-10-11T20:32:23.333Z,6.55
2022-10-11T20:35:11.354Z,6.20
2022-10-11T20:38:00.471Z,6.22
2022-10-11T20:40:48.400Z,6.72
2022-10-11T20:43:36.660Z,8.30
2022-10-11T20:46:26.858Z,6.47
2022-10-11T20:49:14.790Z,7.35
2022-10-11T20:52:02.725Z,6.82
2022-10-11T20:54:51.969Z,7.57
2022-10-11T20:57:39.656Z,6.85
2022-10-11T21:00:27.702Z,6.95
2022-10-11T21:03:17.447Z,6.60
2022-10-11T21:06:06.565Z,6.68
2022-10-11T21:08:56.531Z,6.80
2022-10-11T21:11:46.050Z,6.50
2022-10-11T21:14:33.772Z,6.43
2022-10-11T21:17:21.636Z,6.85
2022-10-11T21:20:10.525Z,6.50
2022-10-11T21:22:58.514Z,7.55
2022-10-11T21:25:46.605Z,6.10
2022-10-11T21:28:36.594Z,6.90
2022-10-11T21:31:27.470Z,6.43
2022-10-11T21:34:19.072Z,7.13
2022-10-11T21:37:06.815Z,6.55
2022-10-11T21:39:54.894Z,6.18
2022-10-11T21:42:43.221Z,7.13
2022-10-11T21:45:36.727Z,6.72
2022-10-11T21:48:24.860Z,7.40
2022-10-11T21:51:15.197Z,6.50
2022-10-11T21:54:03.288Z,7.18
2022-10-11T21:56:51.007Z,6.93
2022-10-11T21:59:39.222Z,7.72
2022-10-11T22:02:28.577Z,7.63
2022-10-11T22:05:16.650Z,7.57
2022-10-11T22:08:04.586Z,7.55
2022-10-11T22:10:56.711Z,7.72
2022-10-11T22:13:44.886Z,6.67
2022-10-11T22:16:33.585Z,7.50
2022-10-11T22:19:23.033Z,6.80
2022-10-11T22:22:10.993Z,6.97
2022-10-11T22:24:58.594Z,7.55
2022-10-11T22:27:46.575Z,7.07
2022-10-11T22:30:34.990Z,7.15
2022-10-11T22:33:22.682Z,6.47
2022-10-11T22:36:16.503Z,7.15
2022-10-11T22:39:07.767Z,6.82
2022-10-11T22:41:55.521Z,6.97
2022-10-11T22:44:43.447Z,6.40
2022-10-11T22:47:31.349Z,7.18
2022-10-11T22:50:19.449Z,8.00
2022-10-11T22:53:08.938Z,6.93
2022-10-11T22:55:56.890Z,7.57
2022-10-11T22:58:45.453Z,7.85
2022-10-11T23:01:33.814Z,8.10
2022-10-11T23:04:25.963Z,7.57
2022-10-11T23:07:13.921Z,7.15
2022-10-11T23:10:06.553Z,8.20
2022-10-11T23:12:54.200Z,7.05
2022-10-11T23:15:42.211Z,6.55
2022-10-11T23:18:30.025Z,6.80
2022-10-11T23:21:17.924Z,7.13
2022-10-11T23:24:09.122Z,7.00
2022-10-11T23:27:01.225Z,7.25
2022-10-11T23:29:49.005Z,7.20
2022-10-11T23:32:38.198Z,6.88
2022-10-11T23:35:26.134Z,7.25
2022-10-11T23:38:14.130Z,7.32
2022-10-11T23:41:02.230Z,7.20
2022-10-11T23:43:51.329Z,7.00
2022-10-11T23:46:39.156Z,6.55
2022-10-11T23:49:27.007Z,6.85
2022-10-11T23:52:15.292Z,7.03
2022-10-11T23:55:06.500Z,7.57
2022-10-11T23:58:03.519Z,7.10
